Wetterdaten: Woche 28.08.23 - 03.09.23 (KW35)
Datum Zeit Temp. Aussen Temp. o. S. Temp +5cm Feuchte Auss Luftdruck Regen Sonnenschein Regendauer Solar Windben Empfang
28.08.2023 08:00 12,0 C 12,0 C 5,6 C 97 % 1012,7 hPa 0,0 l/m 0,12 h 0,00 h 71 W/m 0,7 km/h (0 Bft) 100,00 %
28.08.2023 09:00 14,1 C 15,7 C 10,9 C 98 % 1012,7 hPa 0,0 l/m 0,50 h 0,00 h 205 W/m 4,7 km/h (1 Bft) 95,53 %
28.08.2023 10:00 15,9 C 16,6 C 12,5 C 93 % 1012,8 hPa 0,0 l/m 0,10 h 0,00 h 201 W/m 5,8 km/h (2 Bft) 97,97 %
28.08.2023 11:00 17,3 C 18,3 C 14,0 C 86 % 1012,9 hPa 0,0 l/m 0,63 h 0,00 h 350 W/m 5,6 km/h (1 Bft) 98,86 %
28.08.2023 12:00 18,3 C 19,3 C 15,0 C 80 % 1012,5 hPa 0,0 l/m 0,13 h 0,00 h 314 W/m 5,9 km/h (2 Bft) 96,89 %
28.08.2023 13:00 19,0 C 19,8 C 15,4 C 77 % 1012,5 hPa 0,0 l/m 0,63 h 0,00 h 408 W/m 7,3 km/h (2 Bft) 97,40 %
28.08.2023 14:00 19,9 C 21,7 C 16,0 C 72 % 1012,6 hPa 0,0 l/m 0,60 h 0,00 h 434 W/m 5,6 km/h (1 Bft) 96,38 %
28.08.2023 15:00 20,5 C 21,0 C 16,3 C 70 % 1012,3 hPa 0,0 l/m 0,37 h 0,00 h 326 W/m 6,4 km/h (2 Bft) 99,69 %
28.08.2023 16:00 20,0 C 19,6 C 15,8 C 74 % 1012,3 hPa 0,0 l/m 0,00 h 0,00 h 191 W/m 5,7 km/h (1 Bft) 95,87 %
28.08.2023 17:00 19,5 C 19,1 C 15,2 C 77 % 1012,5 hPa 0,0 l/m 0,00 h 0,00 h 175 W/m 7,8 km/h (2 Bft) 98,02 %
28.08.2023 18:00 19,3 C 18,9 C 14,9 C 76 % 1012,5 hPa 0,0 l/m 0,00 h 0,00 h 124 W/m 4,8 km/h (1 Bft) 98,64 %
28.08.2023 19:00 18,7 C 17,6 C 13,9 C 80 % 1012,7 hPa 0,0 l/m 0,00 h 0,00 h 33 W/m 3,1 km/h (1 Bft) 96,04 %
28.08.2023 20:00 17,9 C 16,5 C 12,8 C 86 % 1012,8 hPa 0,0 l/m 0,00 h 0,00 h 5 W/m 3,0 km/h (1 Bft) 97,59 %
28.08.2023 21:00 17,4 C 16,5 C 12,6 C 85 % 1013,2 hPa 0,0 l/m 0,00 h 0,00 h 0 W/m 1,3 km/h (1 Bft) 99,43 %
28.08.2023 22:00 16,9 C 15,9 C 12,1 C 86 % 1013,1 hPa 0,0 l/m 0,00 h 0,00 h 0 W/m 1,2 km/h (1 Bft) 93,39 %
28.08.2023 23:00 16,4 C 15,5 C 11,7 C 88 % 1013,3 hPa 0,0 l/m 0,00 h 0,00 h 0 W/m 3,7 km/h (1 Bft) 98,87 %
29.08.2023 00:00 15,9 C 15,0 C 11,1 C 91 % 1012,9 hPa 0,0 l/m 0,00 h 0,00 h 0 W/m 3,6 km/h (1 Bft) 95,11 %
29.08.2023 01:00 15,8 C 15,0 C 11,5 C 92 % 1012,6 hPa 0,0 l/m 0,00 h 0,00 h 0 W/m 1,5 km/h (1 Bft) 95,43 %
29.08.2023 02:00 15,5 C 14,3 C 10,9 C 93 % 1012,2 hPa 0,0 l/m 0,00 h 0,00 h 0 W/m 0,9 km/h (0 Bft) 98,08 %
29.08.2023 03:00 14,6 C 13,2 C 10,2 C 94 % 1012,4 hPa 0,0 l/m 0,00 h 0,00 h 0 W/m 0,2 km/h (0 Bft) 97,85 %
29.08.2023 04:00 14,0 C 12,8 C 9,9 C 95 % 1012,9 hPa 0,0 l/m 0,00 h 0,00 h 0 W/m 0,1 km/h (0 Bft) 97,23 %
29.08.2023 05:00 13,8 C 12,8 C 9,5 C 96 % 1012,3 hPa 0,0 l/m 0,00 h 0,00 h 0 W/m 1,6 km/h (1 Bft) 97,28 %
29.08.2023 06:00 13,6 C 12,8 C 9,4 C 96 % 1012,0 hPa 0,0 l/m 0,00 h 0,00 h 5 W/m 0,7 km/h (0 Bft) 97,72 %
29.08.2023 07:00 13,5 C 12,9 C 9,5 C 97 % 1012,1 hPa 0,0 l/m 0,00 h 0,00 h 27 W/m 1,6 km/h (1 Bft) 96,20 %
29.08.2023 08:00 13,9 C 13,8 C 10,5 C 97 % 1012,2 hPa 0,0 l/m 0,00 h 0,00 h 88 W/m 1,7 km/h (1 Bft) 96,51 %
29.08.2023 09:00 14,7 C 15,3 C 11,6 C 97 % 1012,4 hPa 0,0 l/m 0,00 h 0,00 h 156 W/m 6,1 km/h (2 Bft) 97,72 %
29.08.2023 10:00 15,9 C 16,9 C 12,8 C 95 % 1012,4 hPa 0,0 l/m 0,03 h 0,00 h 219 W/m 5,3 km/h (1 Bft) 97,50 %
29.08.2023 11:00 17,7 C 19,8 C 14,8 C 85 % 1012,4 hPa 0,0 l/m 1,00 h 0,00 h 532 W/m 8,2 km/h (2 Bft) 97,42 %
29.08.2023 12:00 19,0 C 20,7 C 15,8 C 78 % 1012,2 hPa 0,0 l/m 0,60 h 0,00 h 367 W/m 8,4 km/h (2 Bft) 96,94 %
29.08.2023 13:00 19,7 C 20,7 C 16,1 C 75 % 1011,9 hPa 0,0 l/m 0,87 h 0,00 h 449 W/m 9,7 km/h (2 Bft) 96,92 %
29.08.2023 14:00 20,6 C 23,5 C 16,5 C 70 % 1011,6 hPa 0,0 l/m 1,00 h 0,00 h 584 W/m 9,7 km/h (2 Bft) 99,79 %
29.08.2023 15:00 21,1 C 21,8 C 16,4 C 65 % 1011,1 hPa 0,0 l/m 0,73 h 0,00 h 505 W/m 6,6 km/h (2 Bft) 95,73 %
29.08.2023 16:00 20,6 C 20,6 C 16,1 C 67 % 1010,9 hPa 0,0 l/m 0,03 h 0,00 h 221 W/m 6,4 km/h (2 Bft) 98,15 %
29.08.2023 17:00 20,9 C 22,1 C 16,5 C 66 % 1010,8 hPa 0,0 l/m 0,60 h 0,00 h 326 W/m 4,9 km/h (1 Bft) 97,30 %
29.08.2023 18:00 20,8 C 20,1 C 16,0 C 68 % 1010,7 hPa 0,0 l/m 0,07 h 0,00 h 85 W/m 2,4 km/h (1 Bft) 97,47 %
29.08.2023 19:00 19,7 C 18,2 C 14,3 C 76 % 1010,7 hPa 0,0 l/m 0,00 h 0,13 h 14 W/m 0,2 km/h (0 Bft) 97,04 %
29.08.2023 20:00 18,5 C 17,3 C 13,6 C 81 % 1010,8 hPa 0,0 l/m 0,00 h 0,00 h 3 W/m 7,0 km/h (2 Bft) 98,29 %
29.08.2023 21:00 17,8 C 16,8 C 13,0 C 83 % 1010,8 hPa 0,0 l/m 0,00 h 0,00 h 0 W/m 2,8 km/h (1 Bft) 96,66 %
29.08.2023 22:00 17,3 C 16,1 C 12,4 C 86 % 1010,7 hPa 0,0 l/m 0,00 h 0,00 h 0 W/m 0,4 km/h (0 Bft) 98,84 %
29.08.2023 23:00 16,9 C 15,8 C 12,4 C 86 % 1010,7 hPa 0,0 l/m 0,00 h 0,00 h 0 W/m 0,1 km/h (0 Bft) 97,30 %
30.08.2023 00:00 16,1 C 14,7 C 11,4 C 89 % 1010,2 hPa 0,0 l/m 0,00 h 0,00 h 0 W/m 0,0 km/h (0 Bft) 93,35 %
30.08.2023 01:00 15,2 C 13,6 C 10,3 C 91 % 1009,7 hPa 0,0 l/m 0,00 h 0,00 h 0 W/m 0,0 km/h (0 Bft) 98,71 %
30.08.2023 02:00 14,3 C 13,1 C 9,9 C 93 % 1009,5 hPa 0,0 l/m 0,00 h 0,00 h 0 W/m 0,1 km/h (0 Bft) 97,39 %
30.08.2023 03:00 13,6 C 12,4 C 9,2 C 94 % 1009,1 hPa 0,0 l/m 0,00 h 0,00 h 0 W/m 0,0 km/h (0 Bft) 96,77 %
30.08.2023 04:00 13,1 C 12,0 C 9,1 C 94 % 1008,9 hPa 0,0 l/m 0,00 h 0,00 h 0 W/m 0,5 km/h (0 Bft) 96,96 %
30.08.2023 05:00 12,7 C 11,5 C 8,6 C 95 % 1008,5 hPa 0,0 l/m 0,00 h 0,00 h 0 W/m 0,0 km/h (0 Bft) 98,51 %
30.08.2023 06:00 12,5 C 11,8 C 8,9 C 96 % 1008,2 hPa 0,0 l/m 0,00 h 0,00 h 0 W/m 0,3 km/h (0 Bft) 96,87 %
30.08.2023 07:00 12,9 C 12,5 C 9,5 C 97 % 1007,6 hPa 0,0 l/m 0,00 h 0,00 h 25 W/m 1,2 km/h (1 Bft) 96,57 %
30.08.2023 08:00 13,6 C 13,8 C 10,6 C 97 % 1007,2 hPa 0,0 l/m 0,07 h 0,00 h 80 W/m 1,4 km/h (1 Bft) 99,38 %
30.08.2023 09:00 15,4 C 16,6 C 12,3 C 91 % 1006,9 hPa 0,0 l/m 0,50 h 0,00 h 220 W/m 11,0 km/h (2 Bft) 95,35 %
30.08.2023 10:00 17,5 C 17,8 C 13,6 C 81 % 1006,8 hPa 0,0 l/m 0,37 h 0,07 h 224 W/m 15,1 km/h (3 Bft) 98,43 %
30.08.2023 11:00 16,8 C 16,1 C 11,6 C 85 % 1006,6 hPa 0,2 l/m 0,00 h 0,53 h 121 W/m 14,6 km/h (3 Bft) 98,74 %
30.08.2023 12:00 15,8 C 14,9 C 10,6 C 91 % 1006,6 hPa 1,2 l/m 0,00 h 0,77 h 105 W/m 14,0 km/h (3 Bft) 95,82 %
30.08.2023 13:00 15,6 C 15,3 C 11,0 C 96 % 1006,5 hPa 0,6 l/m 0,00 h 0,80 h 210 W/m 15,5 km/h (3 Bft) 97,43 %
30.08.2023 14:00 15,6 C 15,0 C 11,0 C 96 % 1006,4 hPa 0,8 l/m 0,00 h 0,80 h 116 W/m 14,1 km/h (3 Bft) 99,31 %
30.08.2023 15:00 15,5 C 15,0 C 11,1 C 97 % 1006,2 hPa 0,4 l/m 0,00 h 0,67 h 119 W/m 14,6 km/h (3 Bft) 94,95 %
30.08.2023 16:00 15,3 C 14,7 C 10,9 C 97 % 1006,3 hPa 0,8 l/m 0,00 h 0,57 h 81 W/m 14,4 km/h (3 Bft) 99,01 %
30.08.2023 17:00 16,1 C 17,8 C 11,6 C 96 % 1006,2 hPa 0,0 l/m 0,63 h 0,00 h 325 W/m 13,6 km/h (3 Bft) 97,71 %
30.08.2023 18:00 17,4 C 19,2 C 11,9 C 90 % 1006,4 hPa 0,0 l/m 0,73 h 0,00 h 216 W/m 13,2 km/h (3 Bft) 96,44 %
30.08.2023 19:00 16,8 C 16,1 C 11,4 C 82 % 1006,9 hPa 0,0 l/m 0,00 h 0,00 h 40 W/m 8,9 km/h (2 Bft) 98,22 %
30.08.2023 20:00 15,8 C 14,5 C 10,9 C 85 % 1007,4 hPa 0,0 l/m 0,00 h 0,00 h 8 W/m 3,5 km/h (1 Bft) 97,87 %
30.08.2023 21:00 14,5 C 13,1 C 9,6 C 89 % 1008,1 hPa 0,0 l/m 0,00 h 0,00 h 0 W/m 0,7 km/h (0 Bft) 96,21 %
30.08.2023 22:00 13,6 C 12,6 C 9,3 C 89 % 1008,5 hPa 0,0 l/m 0,00 h 0,00 h 0 W/m 1,1 km/h (0 Bft) 99,36 %
30.08.2023 23:00 13,3 C 12,4 C 9,4 C 90 % 1008,6 hPa 0,0 l/m 0,00 h 0,00 h 0 W/m 1,7 km/h (1 Bft) 96,09 %
31.08.2023 00:00 13,2 C 12,2 C 9,2 C 90 % 1008,8 hPa 0,0 l/m 0,00 h 0,00 h 0 W/m 1,9 km/h (1 Bft) 96,50 %
31.08.2023 01:00 12,6 C 11,6 C 8,6 C 92 % 1009,0 hPa 0,0 l/m 0,00 h 0,00 h 0 W/m 1,0 km/h (0 Bft) 97,38 %
31.08.2023 02:00 12,1 C 11,1 C 8,3 C 93 % 1009,1 hPa 0,0 l/m 0,00 h 0,00 h 0 W/m 3,0 km/h (1 Bft) 96,47 %
31.08.2023 03:00 11,7 C 10,9 C 7,8 C 94 % 1009,0 hPa 0,0 l/m 0,00 h 0,00 h 0 W/m 3,1 km/h (1 Bft) 96,09 %
31.08.2023 04:00 11,4 C 10,6 C 7,8 C 94 % 1009,3 hPa 0,0 l/m 0,00 h 0,00 h 0 W/m 5,1 km/h (1 Bft) 97,37 %
31.08.2023 05:00 11,2 C 10,6 C 7,4 C 94 % 1009,3 hPa 0,0 l/m 0,00 h 0,00 h 0 W/m 5,2 km/h (1 Bft) 98,64 %
31.08.2023 06:00 11,1 C 10,4 C 7,3 C 95 % 1009,5 hPa 0,0 l/m 0,00 h 0,00 h 4 W/m 8,2 km/h (2 Bft) 96,08 %
31.08.2023 07:00 11,2 C 10,6 C 7,8 C 96 % 1010,1 hPa 0,0 l/m 0,00 h 0,00 h 17 W/m 8,3 km/h (2 Bft) 97,14 %
31.08.2023 08:00 11,9 C 11,6 C 8,4 C 96 % 1010,6 hPa 0,0 l/m 0,07 h 0,00 h 49 W/m 7,8 km/h (2 Bft) 97,94 %
31.08.2023 09:00 13,6 C 13,9 C 9,9 C 93 % 1011,0 hPa 0,0 l/m 0,30 h 0,00 h 151 W/m 11,2 km/h (2 Bft) 97,08 %
31.08.2023 10:00 15,6 C 16,2 C 11,9 C 87 % 1011,3 hPa 0,0 l/m 0,20 h 0,00 h 171 W/m 14,1 km/h (3 Bft) 98,51 %
31.08.2023 11:00 17,6 C 18,8 C 13,8 C 78 % 1011,5 hPa 0,0 l/m 0,43 h 0,00 h 372 W/m 15,1 km/h (3 Bft) 97,75 %
31.08.2023 12:00 18,6 C 20,1 C 15,5 C 75 % 1011,6 hPa 0,0 l/m 0,33 h 0,00 h 375 W/m 15,4 km/h (3 Bft) 96,09 %
31.08.2023 13:00 17,8 C 16,8 C 12,5 C 79 % 1011,5 hPa 2,4 l/m 0,07 h 0,17 h 152 W/m 9,9 km/h (2 Bft) 98,79 %
31.08.2023 14:00 18,3 C 20,3 C 11,2 C 81 % 1011,3 hPa 0,0 l/m 0,83 h 0,00 h 502 W/m 13,7 km/h (3 Bft) 98,00 %
31.08.2023 15:00 20,7 C 21,2 C 13,9 C 66 % 1011,1 hPa 0,0 l/m 0,87 h 0,00 h 634 W/m 16,2 km/h (3 Bft) 95,59 %
31.08.2023 16:00 20,3 C 19,5 C 15,1 C 66 % 1011,3 hPa 0,0 l/m 0,10 h 0,00 h 151 W/m 12,5 km/h (3 Bft) 98,42 %
31.08.2023 17:00 17,8 C 16,8 C 12,4 C 81 % 1012,0 hPa 0,8 l/m 0,03 h 0,37 h 78 W/m 7,4 km/h (2 Bft) 97,72 %
31.08.2023 18:00 16,8 C 16,3 C 11,0 C 89 % 1012,0 hPa 0,0 l/m 0,03 h 0,03 h 79 W/m 1,0 km/h (0 Bft) 96,49 %
31.08.2023 19:00 16,8 C 16,0 C 11,4 C 91 % 1012,1 hPa 0,0 l/m 0,20 h 0,00 h 41 W/m 0,0 km/h (0 Bft) 98,59 %
31.08.2023 20:00 16,3 C 15,0 C 11,2 C 92 % 1012,4 hPa 0,0 l/m 0,03 h 0,00 h 10 W/m 0,0 km/h (0 Bft) 97,08 %
31.08.2023 21:00 15,4 C 14,4 C 10,9 C 92 % 1012,7 hPa 0,0 l/m 0,00 h 0,00 h 0 W/m 2,0 km/h (1 Bft) 96,69 %
31.08.2023 22:00 14,6 C 13,6 C 10,2 C 88 % 1012,9 hPa 0,0 l/m 0,00 h 0,00 h 0 W/m 1,9 km/h (1 Bft) 99,38 %
31.08.2023 23:00 14,0 C 12,4 C 9,1 C 89 % 1012,9 hPa 0,0 l/m 0,00 h 0,00 h 0 W/m 0,0 km/h (0 Bft) 95,15 %
01.09.2023 00:00 13,1 C 11,7 C 8,3 C 92 % 1012,9 hPa 0,0 l/m 0,00 h 0,00 h 0 W/m 0,0 km/h (0 Bft) 96,29 %
01.09.2023 01:00 12,5 C 11,2 C 8,3 C 94 % 1012,8 hPa 0,0 l/m 0,00 h 0,00 h 0 W/m 0,0 km/h (0 Bft) 98,06 %
01.09.2023 02:00 12,7 C 12,3 C 9,1 C 96 % 1012,6 hPa 0,0 l/m 0,00 h 0,00 h 0 W/m 0,0 km/h (0 Bft) 98,29 %
01.09.2023 03:00 13,1 C 12,8 C 9,5 C 96 % 1012,3 hPa 0,0 l/m 0,00 h 0,00 h 0 W/m 0,0 km/h (0 Bft) 95,12 %
01.09.2023 04:00 13,6 C 13,3 C 10,0 C 96 % 1012,2 hPa 0,0 l/m 0,00 h 0,00 h 0 W/m 2,7 km/h (1 Bft) 97,35 %
01.09.2023 05:00 14,1 C 13,7 C 10,6 C 96 % 1012,2 hPa 0,0 l/m 0,00 h 0,00 h 0 W/m 2,6 km/h (1 Bft) 98,30 %
01.09.2023 06:00 14,3 C 13,8 C 10,6 C 96 % 1012,0 hPa 0,0 l/m 0,00 h 0,00 h 3 W/m 4,7 km/h (1 Bft) 97,36 %
01.09.2023 07:00 14,5 C 13,7 C 10,5 C 96 % 1012,0 hPa 0,0 l/m 0,00 h 0,00 h 25 W/m 3,8 km/h (1 Bft) 97,64 %
01.09.2023 08:00 15,0 C 14,8 C 11,4 C 97 % 1012,1 hPa 0,0 l/m 0,00 h 0,00 h 64 W/m 5,3 km/h (1 Bft) 96,64 %
01.09.2023 09:00 15,6 C 15,6 C 12,0 C 97 % 1012,1 hPa 0,0 l/m 0,00 h 0,00 h 104 W/m 6,6 km/h (2 Bft) 97,58 %
01.09.2023 10:00 16,2 C 15,4 C 11,6 C 96 % 1012,3 hPa 0,8 l/m 0,00 h 0,70 h 67 W/m 8,1 km/h (2 Bft) 98,29 %
01.09.2023 11:00 16,1 C 15,0 C 11,5 C 97 % 1012,5 hPa 5,2 l/m 0,00 h 1,00 h 31 W/m 4,2 km/h (1 Bft) 97,20 %
01.09.2023 12:00 16,3 C 15,3 C 12,0 C 98 % 1012,6 hPa 2,2 l/m 0,00 h 1,00 h 95 W/m 3,0 km/h (1 Bft) 97,72 %
01.09.2023 13:00 17,0 C 16,2 C 12,8 C 99 % 1012,5 hPa 2,2 l/m 0,00 h 1,00 h 135 W/m 5,7 km/h (1 Bft) 98,16 %
01.09.2023 14:00 17,5 C 16,9 C 13,3 C 99 % 1012,6 hPa 0,8 l/m 0,00 h 0,80 h 137 W/m 2,9 km/h (1 Bft) 97,01 %
01.09.2023 15:00 18,2 C 18,5 C 14,2 C 100 % 1012,9 hPa 0,2 l/m 0,20 h 0,23 h 265 W/m 4,2 km/h (1 Bft) 96,51 %
01.09.2023 16:00 19,0 C 19,7 C 14,4 C 99 % 1013,2 hPa 0,0 l/m 0,57 h 0,00 h 415 W/m 9,7 km/h (2 Bft) 97,86 %
01.09.2023 17:00 19,9 C 21,7 C 14,4 C 92 % 1013,8 hPa 0,0 l/m 0,63 h 0,00 h 275 W/m 11,0 km/h (2 Bft) 96,30 %
01.09.2023 18:00 20,6 C 22,1 C 14,8 C 88 % 1014,1 hPa 0,0 l/m 0,60 h 0,00 h 153 W/m 6,0 km/h (2 Bft) 97,67 %
01.09.2023 19:00 19,9 C 18,6 C 14,3 C 88 % 1014,4 hPa 0,0 l/m 0,00 h 0,00 h 37 W/m 1,2 km/h (1 Bft) 98,60 %
01.09.2023 20:00 18,5 C 16,4 C 13,0 C 92 % 1015,1 hPa 0,0 l/m 0,00 h 0,00 h 9 W/m 0,0 km/h (0 Bft) 94,77 %
01.09.2023 21:00 17,6 C 16,1 C 13,0 C 95 % 1015,9 hPa 0,0 l/m 0,00 h 0,00 h 0 W/m 0,1 km/h (0 Bft) 99,71 %
01.09.2023 22:00 17,2 C 16,2 C 13,1 C 96 % 1016,2 hPa 0,0 l/m 0,00 h 0,00 h 0 W/m 1,4 km/h (1 Bft) 97,08 %
01.09.2023 23:00 17,2 C 16,1 C 13,3 C 97 % 1016,6 hPa 0,0 l/m 0,00 h 0,00 h 0 W/m 1,7 km/h (1 Bft) 97,29 %
02.09.2023 00:00 16,8 C 15,9 C 12,9 C 97 % 1016,9 hPa 0,0 l/m 0,00 h 0,00 h 0 W/m 4,9 km/h (1 Bft) 98,50 %
02.09.2023 01:00 16,2 C 15,3 C 12,5 C 97 % 1017,0 hPa 0,0 l/m 0,00 h 0,00 h 0 W/m 4,3 km/h (1 Bft) 96,72 %
02.09.2023 02:00 15,8 C 15,0 C 12,2 C 98 % 1017,2 hPa 0,0 l/m 0,00 h 0,00 h 0 W/m 2,3 km/h (1 Bft) 97,67 %
02.09.2023 03:00 15,8 C 15,0 C 12,2 C 98 % 1017,4 hPa 0,0 l/m 0,00 h 0,00 h 0 W/m 2,7 km/h (1 Bft) 97,73 %
02.09.2023 04:00 15,5 C 14,5 C 12,1 C 98 % 1017,6 hPa 0,0 l/m 0,00 h 0,00 h 0 W/m 3,6 km/h (1 Bft) 97,28 %
02.09.2023 05:00 15,2 C 14,3 C 11,7 C 98 % 1017,9 hPa 0,0 l/m 0,00 h 0,00 h 0 W/m 5,7 km/h (1 Bft) 97,16 %
02.09.2023 06:00 14,7 C 13,9 C 11,1 C 98 % 1018,0 hPa 0,0 l/m 0,00 h 0,00 h 5 W/m 4,2 km/h (1 Bft) 97,29 %
02.09.2023 07:00 14,6 C 14,1 C 11,5 C 99 % 1018,4 hPa 0,0 l/m 0,00 h 0,00 h 32 W/m 3,5 km/h (1 Bft) 97,06 %
02.09.2023 08:00 15,2 C 15,1 C 12,3 C 99 % 1018,9 hPa 0,0 l/m 0,00 h 0,00 h 77 W/m 6,3 km/h (2 Bft) 98,28 %
02.09.2023 09:00 15,9 C 16,3 C 13,1 C 99 % 1019,6 hPa 0,0 l/m 0,00 h 0,00 h 127 W/m 5,2 km/h (1 Bft) 96,65 %
02.09.2023 10:00 16,9 C 18,0 C 14,3 C 99 % 1020,3 hPa 0,0 l/m 0,07 h 0,00 h 228 W/m 4,1 km/h (1 Bft) 97,72 %
02.09.2023 11:00 18,5 C 20,5 C 16,2 C 96 % 1020,4 hPa 0,0 l/m 0,57 h 0,00 h 324 W/m 3,1 km/h (1 Bft) 98,29 %
02.09.2023 12:00 20,9 C 22,5 C 17,6 C 89 % 1020,8 hPa 0,0 l/m 0,80 h 0,00 h 382 W/m 3,5 km/h (1 Bft) 96,47 %
02.09.2023 13:00 22,4 C 23,5 C 18,6 C 85 % 1021,0 hPa 0,0 l/m 0,53 h 0,00 h 352 W/m 5,7 km/h (1 Bft) 97,44 %
02.09.2023 14:00 22,8 C 23,6 C 18,7 C 83 % 1021,2 hPa 0,0 l/m 0,27 h 0,00 h 333 W/m 5,2 km/h (1 Bft) 99,36 %
02.09.2023 15:00 23,9 C 24,8 C 19,4 C 80 % 1021,4 hPa 0,0 l/m 0,93 h 0,00 h 566 W/m 7,4 km/h (2 Bft) 95,72 %
02.09.2023 16:00 24,0 C 24,0 C 19,2 C 78 % 1021,6 hPa 0,0 l/m 0,47 h 0,00 h 351 W/m 8,4 km/h (2 Bft) 98,01 %
02.09.2023 17:00 22,9 C 23,9 C 18,3 C 84 % 1021,7 hPa 0,0 l/m 0,63 h 0,00 h 257 W/m 8,3 km/h (2 Bft) 98,58 %
02.09.2023 18:00 23,4 C 25,7 C 19,0 C 82 % 1022,0 hPa 0,0 l/m 0,77 h 0,00 h 194 W/m 6,2 km/h (2 Bft) 96,88 %
02.09.2023 19:00 21,9 C 21,2 C 17,1 C 84 % 1022,4 hPa 0,0 l/m 0,00 h 0,00 h 31 W/m 4,9 km/h (1 Bft) 97,93 %
02.09.2023 20:00 20,4 C 19,1 C 15,4 C 87 % 1023,0 hPa 0,0 l/m 0,00 h 0,00 h 6 W/m 0,3 km/h (0 Bft) 97,57 %
02.09.2023 21:00 19,3 C 18,0 C 14,5 C 90 % 1023,6 hPa 0,0 l/m 0,00 h 0,00 h 0 W/m 0,2 km/h (0 Bft) 96,30 %
02.09.2023 22:00 18,4 C 16,8 C 13,4 C 92 % 1024,0 hPa 0,0 l/m 0,00 h 0,00 h 0 W/m 0,0 km/h (0 Bft) 98,72 %
02.09.2023 23:00 17,6 C 16,3 C 13,0 C 94 % 1024,6 hPa 0,0 l/m 0,00 h 0,00 h 0 W/m 0,0 km/h (0 Bft) 96,16 %
03.09.2023 00:00 16,9 C 15,4 C 12,4 C 95 % 1025,0 hPa 0,0 l/m 0,00 h 0,00 h 0 W/m 0,0 km/h (0 Bft) 93,73 %
03.09.2023 01:00 16,3 C 15,0 C 12,0 C 96 % 1025,4 hPa 0,0 l/m 0,00 h 0,00 h 0 W/m 0,0 km/h (0 Bft) 98,65 %
03.09.2023 02:00 15,7 C 14,4 C 11,3 C 96 % 1025,2 hPa 0,0 l/m 0,00 h 0,00 h 0 W/m 0,0 km/h (0 Bft) 97,44 %
03.09.2023 03:00 15,3 C 14,3 C 11,1 C 97 % 1025,6 hPa 0,0 l/m 0,00 h 0,00 h 0 W/m 0,0 km/h (0 Bft) 97,22 %
03.09.2023 04:00 15,0 C 13,8 C 11,0 C 97 % 1025,7 hPa 0,0 l/m 0,00 h 0,00 h 0 W/m 0,0 km/h (0 Bft) 96,57 %
03.09.2023 05:00 14,4 C 13,3 C 10,6 C 97 % 1025,9 hPa 0,0 l/m 0,00 h 0,00 h 0 W/m 0,0 km/h (0 Bft) 99,65 %
03.09.2023 06:00 14,1 C 13,0 C 10,4 C 98 % 1026,1 hPa 0,0 l/m 0,00 h 0,00 h 3 W/m 0,0 km/h (0 Bft) 95,38 %
03.09.2023 07:00 13,8 C 13,1 C 10,3 C 98 % 1026,7 hPa 0,0 l/m 0,00 h 0,00 h 33 W/m 0,0 km/h (0 Bft) 98,77 %
03.09.2023 08:00 14,7 C 15,1 C 11,7 C 99 % 1027,5 hPa 0,0 l/m 0,00 h 0,00 h 103 W/m 0,4 km/h (0 Bft) 97,74 %
03.09.2023 09:00 16,3 C 17,4 C 13,4 C 99 % 1028,2 hPa 0,0 l/m 0,20 h 0,00 h 157 W/m 1,7 km/h (1 Bft) 95,95 %
03.09.2023 10:00 17,7 C 19,5 C 15,0 C 98 % 1028,4 hPa 0,0 l/m 0,23 h 0,00 h 209 W/m 2,7 km/h (1 Bft) 98,23 %
03.09.2023 11:00 19,8 C 22,4 C 16,6 C 87 % 1028,5 hPa 0,0 l/m 0,63 h 0,00 h 379 W/m 5,3 km/h (1 Bft) 99,43 %
03.09.2023 12:00 22,1 C 25,9 C 18,6 C 75 % 1028,4 hPa 0,0 l/m 0,77 h 0,00 h 473 W/m 6,1 km/h (2 Bft) 95,03 %
03.09.2023 13:00 22,8 C 23,8 C 18,3 C 68 % 1028,2 hPa 0,0 l/m 0,47 h 0,00 h 388 W/m 5,3 km/h (1 Bft) 98,98 %
03.09.2023 14:00 23,5 C 25,3 C 18,9 C 69 % 1028,2 hPa 0,0 l/m 1,00 h 0,00 h 437 W/m 5,8 km/h (1 Bft) 97,27 %
03.09.2023 15:00 24,0 C 24,7 C 18,9 C 65 % 1028,2 hPa 0,0 l/m 1,00 h 0,00 h 504 W/m 7,2 km/h (2 Bft) 97,77 %
03.09.2023 16:00 24,1 C 24,6 C 18,9 C 64 % 1028,1 hPa 0,0 l/m 1,00 h 0,00 h 431 W/m 5,1 km/h (1 Bft) 97,18 %
03.09.2023 17:00 24,4 C 26,6 C 19,5 C 64 % 1028,1 hPa 0,0 l/m 1,00 h 0,00 h 370 W/m 5,6 km/h (1 Bft) 97,78 %
03.09.2023 18:00 24,5 C 25,7 C 19,3 C 64 % 1028,2 hPa 0,0 l/m 0,87 h 0,00 h 194 W/m 5,4 km/h (1 Bft) 97,99 %
03.09.2023 19:00 22,3 C 21,2 C 17,3 C 70 % 1028,0 hPa 0,0 l/m 0,00 h 0,00 h 47 W/m 4,9 km/h (1 Bft) 96,76 %
03.09.2023 20:00 20,6 C 18,8 C 15,4 C 77 % 1027,9 hPa 0,0 l/m 0,00 h 0,00 h 6 W/m 0,9 km/h (0 Bft) 97,31 %
03.09.2023 21:00 19,0 C 17,1 C 13,9 C 84 % 1027,8 hPa 0,0 l/m 0,00 h 0,00 h 0 W/m 0,0 km/h (0 Bft) 98,42 %
03.09.2023 22:00 17,6 C 16,0 C 12,8 C 89 % 1027,8 hPa 0,0 l/m 0,00 h 0,00 h 0 W/m 0,0 km/h (0 Bft) 97,34 %
03.09.2023 23:00 16,4 C 14,7 C 11,8 C 90 % 1027,9 hPa 0,0 l/m 0,00 h 0,00 h 0 W/m 0,0 km/h (0 Bft) 96,92 %
Min-Datum _ 31.08.23 31.08.23 28.08.23 31.08.23 30.08.23 - - - - 28.08.23 29.08.23
_ Min-Zeit 05:32 05:44 08:00 16:06 15:04 - - - - 08:00 00:02
Minimum _ 11,1 C 10,0 C 0,0 C 62 % 1006,1 hPa - - - - 0,0 km/h (0 Bft) 9,09 %
Max-Datum _ 03.09.23 03.09.23 03.09.23 01.09.23 03.09.23 01.09.23 28.08.23 30.08.23 02.09.23 30.08.23 28.08.23
_ Max-Zeit 17:52 12:08 12:08 15:14 11:52 11:42 08:56 12:50 15:32 10:32 08:00
Maximum _ 24,8 C 30,0 C 21,1 C 100 % 1028,6 hPa 5,2 l/m 0,08 h 0,08 h 843 W/m 41,8 km/h
S-SW (6 Bft)
100,00 %
Durchschnitt _ 16,9 C 16,7 C 12,7 C 89 % 1014,9 hPa #18,6 l/m #28:01 h #9:38 h 195 W/m 4,5 km/h (1 Bft) 97,37 %
© 2023 W. Hausmann